createdAt,value
2018-09-18T00:01:40.840Z,16.85
2018-09-18T00:04:09.528Z,16.84
2018-09-18T00:06:38.173Z,16.82
2018-09-18T00:09:09.280Z,16.79
2018-09-18T00:11:38.163Z,16.77
2018-09-18T00:14:07.063Z,16.73
2018-09-18T00:16:35.941Z,16.70
2018-09-18T00:19:04.769Z,16.68
2018-09-18T00:21:33.346Z,16.66
2018-09-18T00:24:01.978Z,16.62
2018-09-18T00:26:30.742Z,16.59
2018-09-18T00:28:59.690Z,16.57
2018-09-18T00:31:28.270Z,16.54
2018-09-18T00:33:56.928Z,16.52
2018-09-18T00:36:25.763Z,16.50
2018-09-18T00:38:54.356Z,16.48
2018-09-18T00:41:24.031Z,16.45
2018-09-18T00:43:53.384Z,16.42
2018-09-18T00:46:22.224Z,16.39
2018-09-18T00:48:50.859Z,16.38
2018-09-18T00:51:19.944Z,16.36
2018-09-18T00:53:48.677Z,16.30
2018-09-18T00:56:19.619Z,16.28
2018-09-18T00:58:48.334Z,16.28
2018-09-18T01:01:19.162Z,16.23
2018-09-18T01:03:47.902Z,16.21
2018-09-18T01:06:16.633Z,16.17
2018-09-18T01:08:45.483Z,16.14
2018-09-18T01:11:15.015Z,16.11
2018-09-18T01:13:43.934Z,16.06
2018-09-18T01:16:13.312Z,16.01
2018-09-18T01:18:43.917Z,16.01
2018-09-18T01:21:12.974Z,15.98
2018-09-18T01:23:41.614Z,15.95
2018-09-18T01:26:10.372Z,15.89
2018-09-18T01:28:39.134Z,15.90
2018-09-18T01:31:07.982Z,15.87
2018-09-18T01:33:36.799Z,15.88
2018-09-18T01:36:05.497Z,15.87
2018-09-18T01:38:34.125Z,15.81
2018-09-18T01:41:04.475Z,15.81
2018-09-18T01:43:33.162Z,15.75
2018-09-18T01:46:01.838Z,15.73
2018-09-18T01:48:30.484Z,15.73
2018-09-18T01:50:59.221Z,15.72
2018-09-18T01:53:28.311Z,15.68
2018-09-18T01:55:56.931Z,15.63
2018-09-18T01:58:25.743Z,15.63
2018-09-18T02:00:54.337Z,15.59
2018-09-18T02:03:23.164Z,15.57
2018-09-18T02:05:51.767Z,15.52
2018-09-18T02:08:20.500Z,15.51
2018-09-18T02:10:49.133Z,15.45
2018-09-18T02:13:17.855Z,15.47
2018-09-18T02:15:47.369Z,15.43
2018-09-18T02:18:16.112Z,15.40
2018-09-18T02:20:45.942Z,15.41
2018-09-18T02:23:14.899Z,15.41
2018-09-18T02:25:43.580Z,15.43
2018-09-18T02:28:12.436Z,15.40
2018-09-18T02:30:41.348Z,15.41
2018-09-18T02:33:10.576Z,15.45
2018-09-18T02:35:39.313Z,15.52
2018-09-18T02:38:08.316Z,15.55
2018-09-18T02:40:37.029Z,15.60
2018-09-18T02:43:05.806Z,15.65
2018-09-18T02:45:34.499Z,15.64
2018-09-18T02:48:04.025Z,15.69
2018-09-18T02:50:33.074Z,15.67
2018-09-18T02:53:02.271Z,15.70
2018-09-18T02:55:30.950Z,15.69
2018-09-18T02:57:59.726Z,15.70
2018-09-18T03:00:28.596Z,15.70
2018-09-18T03:02:57.434Z,15.72
2018-09-18T03:05:26.203Z,15.69
2018-09-18T03:07:55.406Z,15.71
2018-09-18T03:10:25.094Z,15.73
2018-09-18T03:12:53.799Z,15.75
2018-09-18T03:15:22.579Z,15.74
2018-09-18T03:17:51.297Z,15.74
2018-09-18T03:20:20.354Z,15.74
2018-09-18T03:22:49.233Z,15.73
2018-09-18T03:25:17.945Z,15.76
2018-09-18T03:27:46.915Z,15.73
2018-09-18T03:30:15.590Z,15.71
2018-09-18T03:32:44.584Z,15.73
2018-09-18T03:35:13.434Z,15.76
2018-09-18T03:37:42.209Z,15.75
2018-09-18T03:40:10.899Z,15.77
2018-09-18T03:42:39.524Z,15.78
2018-09-18T03:45:08.432Z,15.78
2018-09-18T03:47:37.139Z,15.79
2018-09-18T03:50:05.863Z,15.84
2018-09-18T03:52:35.132Z,15.87
2018-09-18T03:55:04.147Z,15.92
2018-09-18T03:57:32.972Z,15.94
2018-09-18T04:00:01.641Z,16.01
2018-09-18T04:02:30.365Z,16.08
2018-09-18T04:04:59.137Z,16.13
2018-09-18T04:07:27.784Z,16.17
2018-09-18T04:09:56.622Z,16.16
2018-09-18T04:12:25.663Z,16.19
2018-09-18T04:14:54.591Z,16.20
2018-09-18T04:17:24.181Z,16.18
2018-09-18T04:19:53.087Z,16.16
2018-09-18T04:22:21.795Z,16.15
2018-09-18T04:24:50.698Z,16.13
2018-09-18T04:27:19.876Z,16.10
2018-09-18T04:29:48.553Z,16.06
2018-09-18T04:32:17.165Z,16.03
2018-09-18T04:34:45.947Z,15.98
2018-09-18T04:37:14.722Z,15.95
2018-09-18T04:39:43.642Z,15.92
2018-09-18T04:42:12.527Z,15.81
2018-09-18T04:44:41.853Z,15.80
2018-09-18T04:47:10.697Z,15.78
2018-09-18T04:49:39.999Z,15.73
2018-09-18T04:52:09.039Z,15.73
2018-09-18T04:54:37.769Z,15.67
2018-09-18T04:57:06.638Z,15.68
2018-09-18T04:59:35.405Z,15.64
2018-09-18T05:02:05.456Z,15.68
2018-09-18T05:04:34.749Z,15.67
2018-09-18T05:07:04.063Z,15.68
2018-09-18T05:09:35.620Z,15.63
2018-09-18T05:12:04.256Z,15.69
2018-09-18T05:14:32.934Z,15.68
2018-09-18T05:17:01.826Z,15.71
2018-09-18T05:19:30.890Z,15.71
2018-09-18T05:21:59.611Z,15.73
2018-09-18T05:24:28.217Z,15.74
2018-09-18T05:26:57.585Z,15.78
2018-09-18T05:29:26.453Z,15.80
2018-09-18T05:31:56.740Z,15.80
2018-09-18T05:34:25.892Z,15.77
2018-09-18T05:36:54.794Z,15.80
2018-09-18T05:39:23.480Z,15.81
2018-09-18T05:41:52.538Z,15.81
2018-09-18T05:44:21.243Z,15.86
2018-09-18T05:46:50.613Z,15.87
2018-09-18T05:49:19.253Z,15.93
2018-09-18T05:51:48.647Z,15.96
2018-09-18T05:54:17.274Z,15.99
2018-09-18T05:56:45.861Z,15.99
2018-09-18T05:59:14.473Z,16.02
2018-09-18T06:01:43.074Z,16.10
2018-09-18T06:04:12.893Z,16.20
2018-09-18T06:06:41.641Z,16.29
2018-09-18T06:09:11.735Z,16.35
2018-09-18T06:11:40.421Z,16.40
2018-09-18T06:14:09.610Z,16.47
2018-09-18T06:16:38.484Z,16.49
2018-09-18T06:19:07.155Z,16.53
2018-09-18T06:21:35.853Z,16.57
2018-09-18T06:24:04.484Z,16.60
2018-09-18T06:26:33.473Z,16.64
2018-09-18T06:29:02.736Z,16.68
2018-09-18T06:31:31.362Z,16.74
2018-09-18T06:34:00.471Z,16.79
2018-09-18T06:36:30.438Z,16.80
2018-09-18T06:38:59.239Z,16.80
2018-09-18T06:41:27.999Z,16.86
2018-09-18T06:43:57.281Z,16.90
2018-09-18T06:46:25.985Z,16.97
2018-09-18T06:48:54.674Z,17.07
2018-09-18T06:51:24.492Z,17.09
2018-09-18T06:53:53.137Z,17.14
2018-09-18T06:56:21.964Z,17.19
2018-09-18T06:58:51.876Z,17.26
2018-09-18T07:01:20.792Z,17.32
2018-09-18T07:03:49.611Z,17.41
2018-09-18T07:06:19.047Z,17.46
2018-09-18T07:08:47.891Z,17.56
2018-09-18T07:11:16.675Z,17.64
2018-09-18T07:13:45.373Z,17.74
2018-09-18T07:16:14.035Z,17.84
2018-09-18T07:18:42.646Z,17.92
2018-09-18T07:21:12.363Z,18.02
2018-09-18T07:23:41.828Z,18.10
2018-09-18T07:26:10.619Z,18.17
2018-09-18T07:28:39.872Z,18.25
2018-09-18T07:31:08.705Z,18.33
2018-09-18T07:33:37.384Z,18.43
2018-09-18T07:36:06.875Z,18.52
2018-09-18T07:38:36.276Z,18.64
2018-09-18T07:41:05.012Z,18.76
2018-09-18T07:43:34.121Z,18.87
2018-09-18T07:46:03.241Z,18.94
2018-09-18T07:48:38.172Z,19.04
2018-09-18T07:51:08.843Z,19.13
2018-09-18T07:53:37.543Z,19.22
2018-09-18T07:56:06.147Z,19.28
2018-09-18T07:58:35.827Z,19.38
2018-09-18T08:01:04.489Z,19.49
2018-09-18T08:03:33.335Z,19.56
2018-09-18T08:06:02.407Z,19.66
2018-09-18T08:08:31.056Z,19.74
2018-09-18T08:10:59.776Z,19.82
2018-09-18T08:13:28.397Z,19.91
2018-09-18T08:15:57.249Z,19.99
2018-09-18T08:18:26.953Z,20.07
2018-09-18T08:20:55.764Z,20.17
2018-09-18T08:23:24.471Z,20.26
2018-09-18T08:25:53.269Z,20.35
2018-09-18T08:28:22.308Z,20.41
2018-09-18T08:30:52.126Z,20.46
2018-09-18T08:33:20.712Z,20.51
2018-09-18T08:35:49.387Z,20.57
2018-09-18T08:38:18.100Z,20.69
2018-09-18T08:40:47.254Z,20.78
2018-09-18T08:43:16.070Z,20.87
2018-09-18T08:45:44.979Z,21.00
2018-09-18T08:48:14.077Z,21.08
2018-09-18T08:50:42.911Z,21.17
2018-09-18T08:53:12.050Z,21.24
2018-09-18T08:55:41.689Z,21.32
2018-09-18T08:58:10.380Z,21.37
2018-09-18T09:00:39.216Z,21.49
2018-09-18T09:03:08.112Z,21.56
2018-09-18T09:05:37.352Z,21.74
2018-09-18T09:08:06.404Z,21.87
2018-09-18T09:10:36.212Z,21.91
2018-09-18T09:13:06.020Z,21.97
2018-09-18T09:15:34.693Z,22.02
2018-09-18T09:18:03.820Z,22.11
2018-09-18T09:20:32.443Z,22.20
2018-09-18T09:23:02.211Z,22.27
2018-09-18T09:25:31.392Z,22.35
2018-09-18T09:28:00.133Z,22.44
2018-09-18T09:30:28.823Z,22.54
2018-09-18T09:32:57.503Z,22.62
2018-09-18T09:35:27.737Z,22.67
2018-09-18T09:37:57.325Z,22.75
2018-09-18T09:40:26.223Z,22.84
2018-09-18T09:42:54.872Z,22.91
2018-09-18T09:45:23.721Z,22.99
2018-09-18T09:47:52.407Z,23.08
2018-09-18T09:50:21.296Z,23.17
2018-09-18T09:52:50.849Z,23.26
2018-09-18T09:55:20.773Z,23.41
2018-09-18T09:57:50.792Z,23.61
2018-09-18T10:00:25.834Z,23.81
2018-09-18T10:02:54.516Z,23.89
2018-09-18T10:05:24.141Z,24.04
2018-09-18T10:07:52.881Z,24.10
2018-09-18T10:10:21.728Z,24.20
2018-09-18T10:12:50.995Z,24.36
2018-09-18T10:15:20.625Z,24.37
2018-09-18T10:17:51.649Z,24.41
2018-09-18T10:20:20.271Z,24.46
2018-09-18T10:22:50.885Z,24.53
2018-09-18T10:25:21.072Z,24.59
2018-09-18T10:27:50.168Z,24.67
2018-09-18T10:30:18.974Z,24.72
2018-09-18T10:32:47.719Z,24.80
2018-09-18T10:35:16.373Z,24.97
2018-09-18T10:37:45.573Z,25.10
2018-09-18T10:40:14.877Z,25.16
2018-09-18T10:42:44.478Z,25.19
2018-09-18T10:45:13.968Z,25.26
2018-09-18T10:47:43.537Z,25.29
2018-09-18T10:50:16.507Z,25.37
2018-09-18T10:52:46.024Z,25.48
2018-09-18T10:55:14.625Z,25.57
2018-09-18T10:57:43.834Z,25.63
2018-09-18T11:00:12.553Z,25.75
2018-09-18T11:02:42.011Z,25.80
2018-09-18T11:05:10.795Z,25.89
2018-09-18T11:07:40.559Z,26.00
2018-09-18T11:10:10.213Z,26.13
2018-09-18T11:12:39.206Z,26.28
2018-09-18T11:15:08.744Z,26.37
2018-09-18T11:17:37.959Z,26.44
2018-09-18T11:20:07.617Z,26.51
2018-09-18T11:22:36.309Z,26.58
2018-09-18T11:25:05.063Z,26.64
2018-09-18T11:27:33.771Z,26.72
2018-09-18T11:30:03.077Z,26.79
2018-09-18T11:32:32.852Z,26.88
2018-09-18T11:35:01.943Z,27.01
2018-09-18T11:37:30.648Z,27.23
2018-09-18T11:39:59.649Z,27.47
2018-09-18T11:42:28.448Z,27.55
2018-09-18T11:44:58.284Z,27.68
2018-09-18T11:47:27.171Z,27.75
2018-09-18T11:49:56.893Z,27.78
2018-09-18T11:52:25.857Z,27.84
2018-09-18T11:54:54.564Z,27.96
2018-09-18T11:57:23.287Z,27.96
2018-09-18T11:59:52.209Z,27.95
2018-09-18T12:02:20.876Z,28.03
2018-09-18T12:04:49.735Z,28.09
2018-09-18T12:07:19.413Z,28.16
2018-09-18T12:09:48.187Z,28.23
2018-09-18T12:12:17.140Z,28.29
2018-09-18T12:14:46.543Z,28.36
2018-09-18T12:17:15.561Z,28.45
2018-09-18T12:19:44.364Z,28.53
2018-09-18T12:22:13.224Z,28.60
2018-09-18T12:24:41.812Z,28.71
2018-09-18T12:27:10.631Z,28.79
2018-09-18T12:29:40.903Z,28.89
2018-09-18T12:32:10.485Z,28.99
2018-09-18T12:34:40.056Z,29.06
2018-09-18T12:37:08.851Z,29.13
2018-09-18T12:39:38.612Z,29.18
2018-09-18T12:42:08.417Z,29.26
2018-09-18T12:44:37.583Z,29.33
2018-09-18T12:47:06.354Z,29.41
2018-09-18T12:49:35.224Z,29.49
2018-09-18T12:52:05.028Z,29.60
2018-09-18T12:54:35.003Z,29.67
2018-09-18T12:57:05.333Z,29.73
2018-09-18T12:59:33.901Z,29.79
2018-09-18T13:02:03.457Z,29.90
2018-09-18T13:04:32.220Z,29.93
2018-09-18T13:07:02.925Z,30.00
2018-09-18T13:09:31.895Z,30.02
2018-09-18T13:12:00.491Z,30.08
2018-09-18T13:14:29.271Z,30.21
2018-09-18T13:16:58.271Z,30.30
2018-09-18T13:19:27.574Z,30.31
2018-09-18T13:21:56.619Z,30.41
2018-09-18T13:24:25.818Z,30.44
2018-09-18T13:26:54.699Z,30.52
2018-09-18T13:29:23.433Z,30.61
2018-09-18T13:31:53.074Z,30.66
2018-09-18T13:34:21.750Z,30.75
2018-09-18T13:36:50.457Z,30.84
2018-09-18T13:39:19.349Z,30.89
2018-09-18T13:41:48.377Z,30.94
2018-09-18T13:44:17.246Z,30.97
2018-09-18T13:46:46.022Z,31.00
2018-09-18T13:49:15.074Z,31.06
2018-09-18T13:51:43.804Z,31.06
2018-09-18T13:54:13.664Z,31.06
2018-09-18T13:56:42.487Z,31.07
2018-09-18T13:59:11.326Z,31.16
2018-09-18T14:01:40.068Z,31.35
2018-09-18T14:04:08.741Z,31.41
2018-09-18T14:06:37.371Z,31.45
2018-09-18T14:09:07.965Z,31.50
2018-09-18T14:11:36.613Z,31.45
2018-09-18T14:14:05.352Z,31.40
2018-09-18T14:16:34.117Z,31.46
2018-09-18T14:19:03.503Z,31.52
2018-09-18T14:21:32.467Z,31.57
2018-09-18T14:24:02.708Z,31.56
2018-09-18T14:26:32.393Z,31.57
2018-09-18T14:29:00.916Z,31.61
2018-09-18T14:31:29.705Z,31.64
2018-09-18T14:34:04.110Z,31.49
2018-09-18T14:36:33.691Z,31.14
2018-09-18T14:39:03.553Z,30.98
2018-09-18T14:41:32.617Z,30.98
2018-09-18T14:44:01.582Z,31.12
2018-09-18T14:46:31.217Z,31.24
2018-09-18T14:49:00.765Z,31.36
2018-09-18T14:51:29.420Z,31.43
2018-09-18T14:53:58.661Z,31.49
2018-09-18T14:56:27.789Z,31.55
2018-09-18T14:58:57.433Z,31.62
2018-09-18T15:01:27.166Z,31.70
2018-09-18T15:03:56.547Z,31.72
2018-09-18T15:06:25.434Z,31.73
2018-09-18T15:08:54.068Z,31.69
2018-09-18T15:11:25.361Z,31.65
2018-09-18T15:13:55.601Z,31.61
2018-09-18T15:16:24.253Z,31.59
2018-09-18T15:18:54.608Z,31.60
2018-09-18T15:21:23.408Z,31.64
2018-09-18T15:23:52.395Z,31.62
2018-09-18T15:26:24.827Z,31.56
2018-09-18T15:28:59.898Z,31.44
2018-09-18T15:31:31.036Z,31.27
2018-09-18T15:34:02.115Z,31.10
2018-09-18T15:36:31.542Z,30.88
2018-09-18T15:39:00.886Z,30.58
2018-09-18T15:41:29.505Z,30.30
2018-09-18T15:43:59.812Z,30.08
2018-09-18T15:46:29.197Z,29.92
2018-09-18T15:49:03.428Z,29.76
2018-09-18T15:51:33.465Z,29.63
2018-09-18T15:54:03.463Z,29.50
2018-09-18T15:56:32.338Z,29.39
2018-09-18T15:59:02.493Z,29.30
2018-09-18T16:01:31.735Z,29.24
2018-09-18T16:04:02.215Z,29.15
2018-09-18T16:06:32.772Z,29.08
2018-09-18T16:09:03.205Z,29.01
2018-09-18T16:11:32.059Z,28.91
2018-09-18T16:14:01.576Z,28.81
2018-09-18T16:16:31.375Z,28.77
2018-09-18T16:19:00.870Z,28.76
2018-09-18T16:21:29.661Z,28.73
2018-09-18T16:23:58.372Z,28.67
2018-09-18T16:26:29.217Z,28.59
2018-09-18T16:28:59.342Z,28.60
2018-09-18T16:31:28.910Z,28.59
2018-09-18T16:34:00.102Z,28.51
2018-09-18T16:36:29.771Z,28.46
2018-09-18T16:38:59.684Z,28.53
2018-09-18T16:41:30.027Z,28.59
2018-09-18T16:43:58.747Z,28.51
2018-09-18T16:46:28.099Z,28.43
2018-09-18T16:48:57.714Z,28.37
2018-09-18T16:51:27.289Z,28.26
2018-09-18T16:53:57.649Z,28.20
2018-09-18T16:56:27.294Z,28.21
2018-09-18T16:58:57.062Z,28.21
2018-09-18T17:01:26.213Z,28.18
2018-09-18T17:03:55.334Z,28.15
2018-09-18T17:06:24.282Z,28.04
2018-09-18T17:08:52.969Z,27.95
2018-09-18T17:11:22.104Z,27.87
2018-09-18T17:13:50.799Z,27.84
2018-09-18T17:16:20.728Z,27.76
2018-09-18T17:18:49.487Z,27.66
2018-09-18T17:21:18.271Z,27.56
2018-09-18T17:23:47.030Z,27.49
2018-09-18T17:26:17.274Z,27.39
2018-09-18T17:28:46.336Z,27.30
2018-09-18T17:31:15.002Z,27.19
2018-09-18T17:33:43.712Z,27.08
2018-09-18T17:36:12.758Z,27.00
2018-09-18T17:38:41.786Z,26.85
2018-09-18T17:41:10.844Z,26.78
2018-09-18T17:43:40.255Z,26.72
2018-09-18T17:46:08.983Z,26.67
2018-09-18T17:48:38.226Z,26.67
2018-09-18T17:51:07.333Z,26.59
2018-09-18T17:53:36.912Z,26.54
2018-09-18T17:56:06.810Z,26.47
2018-09-18T17:58:35.718Z,26.38
2018-09-18T18:01:05.267Z,26.34
2018-09-18T18:03:34.239Z,26.25
2018-09-18T18:06:04.419Z,26.16
2018-09-18T18:08:35.023Z,26.08
2018-09-18T18:11:08.749Z,26.01
2018-09-18T18:13:39.520Z,25.92
2018-09-18T18:16:10.063Z,25.84
2018-09-18T18:18:42.638Z,25.79
2018-09-18T18:21:12.878Z,25.75
2018-09-18T18:23:46.477Z,25.72
2018-09-18T18:26:18.283Z,25.65
2018-09-18T18:28:46.989Z,25.61
2018-09-18T18:31:15.810Z,25.54
2018-09-18T18:33:44.648Z,25.51
2018-09-18T18:36:13.907Z,25.49
2018-09-18T18:38:42.756Z,25.50
2018-09-18T18:41:11.741Z,25.54
2018-09-18T18:43:40.610Z,25.51
2018-09-18T18:46:10.572Z,25.46
2018-09-18T18:48:39.967Z,25.41
2018-09-18T18:51:09.320Z,25.37
2018-09-18T18:53:38.310Z,25.29
2018-09-18T18:56:07.938Z,25.24
2018-09-18T18:58:38.268Z,25.23
2018-09-18T19:01:07.663Z,25.24
2018-09-18T19:03:37.264Z,25.23
2018-09-18T19:06:06.277Z,25.31
2018-09-18T19:08:36.240Z,25.43
2018-09-18T19:11:05.001Z,25.42
2018-09-18T19:13:34.588Z,25.40
2018-09-18T19:16:04.283Z,25.39
2018-09-18T19:18:33.293Z,25.37
2018-09-18T19:21:02.871Z,25.27
2018-09-18T19:23:32.296Z,25.23
2018-09-18T19:26:01.849Z,25.21
2018-09-18T19:28:30.886Z,25.16
2018-09-18T19:30:59.752Z,25.13
2018-09-18T19:33:29.214Z,25.16
2018-09-18T19:35:58.644Z,25.27
2018-09-18T19:38:27.475Z,25.35
2018-09-18T19:40:56.246Z,25.32
2018-09-18T19:43:25.160Z,25.30
2018-09-18T19:45:54.363Z,25.27
2018-09-18T19:48:24.834Z,25.21
2018-09-18T19:50:53.830Z,25.22
2018-09-18T19:53:22.842Z,25.25
2018-09-18T19:55:53.483Z,25.23
2018-09-18T19:58:22.370Z,25.28
2018-09-18T20:00:51.862Z,25.35
2018-09-18T20:03:21.199Z,25.38
2018-09-18T20:05:50.107Z,25.44
2018-09-18T20:08:20.028Z,25.42
2018-09-18T20:10:49.124Z,25.43
2018-09-18T20:13:18.205Z,25.40
2018-09-18T20:15:47.026Z,25.39
2018-09-18T20:18:15.825Z,25.36
2018-09-18T20:20:45.057Z,25.32
2018-09-18T20:23:15.240Z,25.34
2018-09-18T20:25:44.596Z,25.37
2018-09-18T20:28:13.632Z,25.42
2018-09-18T20:30:44.549Z,25.44
2018-09-18T20:33:15.077Z,25.45
2018-09-18T20:35:44.076Z,25.47
2018-09-18T20:38:13.235Z,25.43
2018-09-18T20:40:42.151Z,25.39
2018-09-18T20:43:11.309Z,25.32
2018-09-18T20:45:41.242Z,25.24
2018-09-18T20:48:10.422Z,25.18
2018-09-18T20:50:39.781Z,25.12
2018-09-18T20:53:08.909Z,25.05
2018-09-18T20:55:37.908Z,25.00
2018-09-18T20:58:07.596Z,24.93
2018-09-18T21:00:36.738Z,24.88
2018-09-18T21:03:05.945Z,24.80
2018-09-18T21:05:35.425Z,24.77
2018-09-18T21:08:04.340Z,24.69
2018-09-18T21:10:33.528Z,24.65
2018-09-18T21:13:02.338Z,24.60
2018-09-18T21:15:31.299Z,24.56
2018-09-18T21:18:00.913Z,24.52
2018-09-18T21:20:30.588Z,24.48
2018-09-18T21:22:59.621Z,24.45
2018-09-18T21:25:38.289Z,24.38
2018-09-18T21:28:07.075Z,24.31
2018-09-18T21:30:35.766Z,24.27
2018-09-18T21:33:04.780Z,24.24
2018-09-18T21:35:33.578Z,24.20
2018-09-18T21:38:03.729Z,24.17
2018-09-18T21:40:32.505Z,24.14
2018-09-18T21:43:01.735Z,24.08
2018-09-18T21:45:30.548Z,23.99
2018-09-18T21:47:59.464Z,23.95
2018-09-18T21:50:28.736Z,23.93
2018-09-18T21:53:00.456Z,23.87
2018-09-18T21:55:29.299Z,23.83
2018-09-18T21:57:57.986Z,23.81
2018-09-18T22:00:26.785Z,23.73
2018-09-18T22:02:55.544Z,23.71
2018-09-18T22:05:24.477Z,23.67
2018-09-18T22:07:55.047Z,23.63
2018-09-18T22:10:30.790Z,23.61
2018-09-18T22:13:00.610Z,23.55
2018-09-18T22:15:30.127Z,23.50
2018-09-18T22:17:59.137Z,23.43
2018-09-18T22:20:28.009Z,23.41
2018-09-18T22:22:57.128Z,23.33
2018-09-18T22:25:26.196Z,23.31
2018-09-18T22:27:55.182Z,23.29
2018-09-18T22:30:24.206Z,23.20
2018-09-18T22:33:23.760Z,23.11
2018-09-18T22:35:52.960Z,23.09
2018-09-18T22:38:21.781Z,23.04
2018-09-18T22:40:50.708Z,23.00
2018-09-18T22:43:19.662Z,22.96
2018-09-18T22:45:48.443Z,23.00
2018-09-18T22:48:17.301Z,23.01
2018-09-18T22:50:46.408Z,23.01
2018-09-18T22:53:15.273Z,22.95
2018-09-18T22:55:44.087Z,22.94
2018-09-18T22:58:12.907Z,22.85
2018-09-18T23:00:41.647Z,22.83
2018-09-18T23:03:11.017Z,22.74
2018-09-18T23:05:39.792Z,22.72
2018-09-18T23:08:10.786Z,22.66
2018-09-18T23:10:39.785Z,22.64
2018-09-18T23:13:09.772Z,22.63
2018-09-18T23:15:39.381Z,22.58
2018-09-18T23:18:08.559Z,22.57
2018-09-18T23:20:37.730Z,22.59
2018-09-18T23:23:06.595Z,22.55
2018-09-18T23:25:36.169Z,22.50
2018-09-18T23:28:04.948Z,22.41
2018-09-18T23:30:34.315Z,22.37
2018-09-18T23:33:03.641Z,22.27
2018-09-18T23:35:32.753Z,22.22
2018-09-18T23:38:02.188Z,22.13
2018-09-18T23:40:31.306Z,22.03
2018-09-18T23:43:00.063Z,21.93
2018-09-18T23:45:28.741Z,21.84
2018-09-18T23:47:57.491Z,21.78
2018-09-18T23:50:26.233Z,21.73
2018-09-18T23:53:01.323Z,21.70
2018-09-18T23:55:30.109Z,21.60
2018-09-18T23:57:59.005Z,21.53
